Terminal Aerodrome Forecast
Issued by NWS

Home | Current Version | Previous Version | Text Only | Print | Product List | Glossary On
Versions: 1 2 3 4 5 6 7 8 9 10 11 12 13 14 15 16 17 18 19 20 21 22 23 24 25 26 27 28 29 30 31 32 33 34 35 36 37 38 39 40 41 42
000
FTUS45 KGJT 262326
TAFASE
TAF
KASE 262326Z 2700/2724 33005KT 4SM -SN BR FEW018 BKN035 OVC050
      TEMPO 2700/2702 P6SM NSW SCT030 OVC050
     FM270200 34005KT P6SM VCSH OVC025
     FM270600 27004KT 4SM BR BKN020 OVC040
     FM271100 29003KT P6SM OVC050
     FM271800 34005KT P6SM SCT050 BKN120=

USA.gov is the U.S. government's official web portal to all federal, state and local government web resources and services.